createdAt,value
2023-03-17T00:01:54.273Z,16.00
2023-03-17T00:04:24.406Z,16.00
2023-03-17T00:06:52.740Z,15.90
2023-03-17T00:09:20.548Z,15.90
2023-03-17T00:11:48.322Z,15.90
2023-03-17T00:14:17.036Z,15.80
2023-03-17T00:16:50.264Z,15.80
2023-03-17T00:19:29.930Z,15.80
2023-03-17T00:21:58.367Z,15.80
2023-03-17T00:24:25.206Z,15.70
2023-03-17T00:26:52.408Z,15.70
2023-03-17T00:29:20.569Z,15.70
2023-03-17T00:31:47.402Z,15.70
2023-03-17T00:34:17.343Z,15.70
2023-03-17T00:36:47.456Z,15.60
2023-03-17T00:41:43.812Z,15.60
2023-03-17T00:44:11.996Z,15.60
2023-03-17T00:46:41.535Z,15.60
2023-03-17T00:49:21.510Z,15.50
2023-03-17T00:51:49.919Z,15.50
2023-03-17T00:54:18.715Z,15.50
2023-03-17T00:56:47.031Z,15.50
2023-03-17T00:59:30.620Z,15.40
2023-03-17T01:01:57.721Z,15.50
2023-03-17T01:04:25.119Z,15.40
2023-03-17T01:06:53.223Z,15.40
2023-03-17T01:09:22.623Z,15.30
2023-03-17T01:11:49.829Z,15.30
2023-03-17T01:14:16.979Z,15.30
2023-03-17T01:16:45.003Z,15.30
2023-03-17T01:19:13.429Z,15.30
2023-03-17T01:21:40.846Z,15.30
2023-03-17T01:24:08.428Z,15.30
2023-03-17T01:26:36.982Z,15.30
2023-03-17T01:29:06.355Z,15.30
2023-03-17T01:31:33.677Z,15.30
2023-03-17T01:34:01.124Z,15.30
2023-03-17T01:36:28.052Z,15.30
2023-03-17T01:38:55.047Z,15.30
2023-03-17T01:41:22.199Z,15.30
2023-03-17T01:43:50.016Z,15.30
2023-03-17T01:46:22.158Z,15.30
2023-03-17T01:49:22.517Z,15.30
2023-03-17T01:51:58.977Z,15.20
2023-03-17T01:54:31.708Z,15.20
2023-03-17T01:57:09.327Z,15.10
2023-03-17T01:59:43.946Z,15.10
2023-03-17T02:02:12.922Z,15.10
2023-03-17T02:04:40.472Z,15.00
2023-03-17T02:07:09.001Z,15.00
2023-03-17T02:09:36.630Z,15.00
2023-03-17T02:12:05.385Z,15.00
2023-03-17T02:14:32.299Z,15.00
2023-03-17T02:17:02.333Z,14.90
2023-03-17T02:19:29.443Z,14.90
2023-03-17T02:21:58.266Z,14.90
2023-03-17T02:24:46.013Z,14.90
2023-03-17T02:27:26.309Z,14.80
2023-03-17T02:29:53.508Z,14.80
2023-03-17T02:32:20.550Z,14.80
2023-03-17T02:34:48.690Z,14.80
2023-03-17T02:37:16.803Z,14.70
2023-03-17T02:39:44.258Z,14.70
2023-03-17T02:42:13.131Z,14.80
2023-03-17T02:44:40.631Z,14.80
2023-03-17T02:47:08.726Z,14.80
2023-03-17T02:49:39.168Z,14.80
2023-03-17T02:52:06.618Z,14.80
2023-03-17T02:54:33.663Z,14.80
2023-03-17T02:57:02.301Z,14.80
2023-03-17T02:59:30.682Z,14.80
2023-03-17T03:01:59.316Z,14.80
2023-03-17T03:04:26.553Z,14.80
2023-03-17T03:06:54.441Z,14.80
2023-03-17T03:09:21.642Z,14.90
2023-03-17T03:11:48.693Z,14.90
2023-03-17T03:14:16.265Z,15.00
2023-03-17T03:16:43.648Z,15.00
2023-03-17T03:19:10.807Z,15.00
2023-03-17T03:21:37.849Z,15.00
2023-03-17T03:24:05.710Z,15.00
2023-03-17T03:26:32.967Z,15.00
2023-03-17T03:29:00.170Z,15.10
2023-03-17T03:31:27.827Z,15.00
2023-03-17T03:33:55.028Z,15.10
2023-03-17T03:36:22.536Z,15.10
2023-03-17T03:38:49.839Z,15.20
2023-03-17T03:41:16.785Z,15.20
2023-03-17T03:43:43.644Z,15.10
2023-03-17T03:46:10.875Z,15.20
2023-03-17T03:48:37.721Z,15.20
2023-03-17T03:51:04.697Z,15.20
2023-03-17T03:53:31.712Z,15.20
2023-03-17T03:55:58.763Z,15.20
2023-03-17T03:58:25.961Z,15.20
2023-03-17T04:00:52.795Z,15.20
2023-03-17T04:03:19.748Z,15.20
2023-03-17T04:05:46.605Z,15.20
2023-03-17T04:08:13.538Z,15.20
2023-03-17T04:10:40.330Z,15.20
2023-03-17T04:13:08.545Z,15.20
2023-03-17T04:15:36.373Z,15.20
2023-03-17T04:18:03.367Z,15.20
2023-03-17T04:20:30.362Z,15.20
2023-03-17T04:22:57.419Z,15.20
2023-03-17T04:25:24.718Z,15.20
2023-03-17T04:27:51.810Z,15.30
2023-03-17T04:30:19.272Z,15.20
2023-03-17T04:32:46.574Z,15.20
2023-03-17T04:35:15.934Z,15.20
2023-03-17T04:37:42.819Z,15.20
2023-03-17T04:40:14.480Z,15.20
2023-03-17T04:42:42.591Z,15.20
2023-03-17T04:45:12.151Z,15.20
2023-03-17T04:47:39.485Z,15.20
2023-03-17T04:50:08.143Z,15.20
2023-03-17T04:52:36.524Z,15.30
2023-03-17T04:55:05.467Z,15.20
2023-03-17T04:57:34.867Z,15.20
2023-03-17T05:00:01.666Z,15.20
2023-03-17T05:02:30.035Z,15.20
2023-03-17T05:04:57.864Z,15.20
2023-03-17T05:07:25.107Z,15.20
2023-03-17T05:09:51.924Z,15.20
2023-03-17T05:12:21.093Z,15.20
2023-03-17T05:14:47.928Z,15.20
2023-03-17T05:17:14.831Z,15.20
2023-03-17T05:19:41.764Z,15.20
2023-03-17T05:22:08.879Z,15.20
2023-03-17T05:24:35.824Z,15.20
2023-03-17T05:27:02.770Z,15.20
2023-03-17T05:29:30.097Z,15.20
2023-03-17T05:31:56.917Z,15.20
2023-03-17T05:34:23.915Z,15.20
2023-03-17T05:36:50.741Z,15.20
2023-03-17T05:39:17.701Z,15.20
2023-03-17T05:41:44.566Z,15.20
2023-03-17T05:44:11.418Z,15.20
2023-03-17T05:46:38.431Z,15.10
2023-03-17T05:49:05.322Z,15.10
2023-03-17T05:51:32.423Z,15.10
2023-03-17T05:53:59.539Z,15.10
2023-03-17T05:56:33.727Z,15.10
2023-03-17T05:59:01.856Z,15.10
2023-03-17T06:01:29.799Z,15.10
2023-03-17T06:03:56.916Z,15.20
2023-03-17T06:06:24.930Z,15.10
2023-03-17T06:08:52.412Z,15.20
2023-03-17T06:11:22.533Z,15.20
2023-03-17T06:13:49.657Z,15.20
2023-03-17T06:16:16.984Z,15.20
2023-03-17T06:18:45.415Z,15.20
2023-03-17T06:21:15.788Z,15.20
2023-03-17T06:23:43.717Z,15.20
2023-03-17T06:26:11.035Z,15.20
2023-03-17T06:28:37.829Z,15.20
2023-03-17T06:31:07.236Z,15.20
2023-03-17T06:33:35.074Z,15.20
2023-03-17T06:36:01.940Z,15.30
2023-03-17T06:38:28.812Z,15.30
2023-03-17T06:40:55.757Z,15.30
2023-03-17T06:43:24.949Z,15.30
2023-03-17T06:45:52.973Z,15.30
2023-03-17T06:48:20.276Z,15.30
2023-03-17T06:50:51.374Z,15.30
2023-03-17T06:53:18.515Z,15.30
2023-03-17T06:55:47.151Z,15.40
2023-03-17T06:58:16.143Z,15.40
2023-03-17T07:00:45.732Z,15.40
2023-03-17T07:03:12.992Z,15.50
2023-03-17T07:05:40.326Z,15.50
2023-03-17T07:08:08.022Z,15.60
2023-03-17T07:10:35.517Z,15.60
2023-03-17T07:13:02.514Z,15.60
2023-03-17T07:15:32.121Z,15.60
2023-03-17T07:17:59.546Z,15.70
2023-03-17T07:20:26.644Z,15.80
2023-03-17T07:22:54.614Z,15.80
2023-03-17T07:25:22.840Z,15.90
2023-03-17T07:27:50.343Z,16.00
2023-03-17T07:30:19.574Z,16.00
2023-03-17T07:32:47.736Z,16.00
2023-03-17T07:35:16.625Z,16.10
2023-03-17T07:37:44.371Z,16.10
2023-03-17T07:40:11.757Z,16.20
2023-03-17T07:42:38.760Z,16.20
2023-03-17T07:45:06.240Z,16.30
2023-03-17T07:47:33.429Z,16.30
2023-03-17T07:50:00.468Z,16.40
2023-03-17T07:52:27.312Z,16.50
2023-03-17T07:54:54.596Z,16.50
2023-03-17T07:57:22.357Z,16.50
2023-03-17T07:59:49.895Z,16.60
2023-03-17T08:02:18.259Z,16.60
2023-03-17T08:04:45.777Z,16.60
2023-03-17T08:07:13.082Z,16.80
2023-03-17T08:09:40.047Z,16.80
2023-03-17T08:12:07.352Z,16.80
2023-03-17T08:14:34.087Z,16.90
2023-03-17T08:17:01.026Z,17.00
2023-03-17T08:19:27.963Z,17.20
2023-03-17T08:21:55.165Z,17.30
2023-03-17T08:24:22.573Z,17.40
2023-03-17T08:26:50.132Z,17.40
2023-03-17T08:29:17.109Z,17.60
2023-03-17T08:31:46.734Z,17.60
2023-03-17T08:34:14.349Z,17.70
2023-03-17T08:36:42.491Z,17.80
2023-03-17T08:39:10.529Z,17.90
2023-03-17T08:41:38.817Z,18.00
2023-03-17T08:44:05.772Z,18.10
2023-03-17T08:46:36.569Z,18.20
2023-03-17T08:49:03.633Z,18.30
2023-03-17T08:51:32.507Z,18.30
2023-03-17T08:53:59.987Z,18.40
2023-03-17T08:56:27.801Z,18.40
2023-03-17T08:58:54.823Z,18.60
2023-03-17T09:01:23.140Z,18.60
2023-03-17T09:03:56.042Z,18.70
2023-03-17T09:06:23.837Z,18.80
2023-03-17T09:08:55.414Z,18.80
2023-03-17T09:11:26.242Z,18.90
2023-03-17T09:13:53.790Z,19.00
2023-03-17T09:16:21.021Z,19.00
2023-03-17T09:18:47.926Z,19.00
2023-03-17T09:21:15.694Z,19.10
2023-03-17T09:23:44.586Z,19.20
2023-03-17T09:26:13.073Z,19.30
2023-03-17T09:28:40.181Z,19.50
2023-03-17T09:31:11.449Z,19.50
2023-03-17T09:33:40.705Z,19.60
2023-03-17T09:36:08.838Z,19.70
2023-03-17T09:38:36.277Z,19.80
2023-03-17T09:41:51.164Z,19.90
2023-03-17T09:44:39.845Z,20.00
2023-03-17T09:47:37.688Z,19.90
2023-03-17T09:50:19.533Z,19.90
2023-03-17T09:52:46.632Z,20.00
2023-03-17T09:55:31.403Z,20.20
2023-03-17T09:58:00.801Z,20.30
2023-03-17T10:00:30.159Z,20.20
2023-03-17T10:02:58.655Z,20.20
2023-03-17T10:05:26.247Z,20.20
2023-03-17T10:08:28.926Z,20.30
2023-03-17T10:11:26.744Z,20.50
2023-03-17T10:14:43.301Z,20.60
2023-03-17T10:17:46.199Z,20.60
2023-03-17T10:20:13.041Z,20.60
2023-03-17T10:22:58.084Z,20.60
2023-03-17T10:25:34.028Z,20.70
2023-03-17T10:28:18.525Z,20.80
2023-03-17T10:30:46.841Z,20.80
2023-03-17T10:33:16.054Z,20.80
2023-03-17T10:35:44.981Z,20.90
2023-03-17T10:38:20.808Z,20.90
2023-03-17T10:40:59.109Z,21.00
2023-03-17T10:43:36.183Z,21.10
2023-03-17T10:46:06.147Z,21.30
2023-03-17T10:48:38.058Z,21.30
2023-03-17T10:51:09.562Z,21.40
2023-03-17T10:53:44.086Z,21.60
2023-03-17T10:56:22.190Z,21.90
2023-03-17T10:58:50.932Z,22.00
2023-03-17T11:01:38.407Z,22.20
2023-03-17T11:04:34.135Z,22.40
2023-03-17T11:07:10.906Z,22.40
2023-03-17T11:09:38.265Z,22.50
2023-03-17T11:12:25.888Z,22.60
2023-03-17T11:15:00.876Z,22.60
2023-03-17T11:17:56.027Z,22.70
2023-03-17T11:20:46.880Z,22.70
2023-03-17T11:23:35.234Z,22.70
2023-03-17T11:26:33.408Z,22.70
2023-03-17T11:29:33.226Z,22.70
2023-03-17T11:32:13.485Z,22.60
2023-03-17T11:35:03.690Z,22.50
2023-03-17T11:37:58.111Z,22.60
2023-03-17T11:40:33.943Z,22.60
2023-03-17T11:43:28.367Z,22.70
2023-03-17T11:46:28.386Z,22.90
2023-03-17T11:48:55.328Z,23.00
2023-03-17T11:51:33.423Z,23.10
2023-03-17T11:54:25.013Z,23.30
2023-03-17T11:56:54.584Z,23.50
2023-03-17T11:59:24.582Z,23.60
2023-03-17T12:01:59.859Z,23.80
2023-03-17T12:04:34.895Z,23.90
2023-03-17T12:07:27.657Z,24.00
2023-03-17T12:10:09.998Z,24.10
2023-03-17T12:12:43.980Z,24.30
2023-03-17T12:15:19.005Z,24.40
2023-03-17T12:18:02.907Z,24.50
2023-03-17T12:20:52.297Z,24.60
2023-03-17T12:23:29.899Z,24.80
2023-03-17T12:26:12.920Z,24.90
2023-03-17T12:29:00.047Z,25.10
2023-03-17T12:31:37.010Z,25.40
2023-03-17T12:34:31.615Z,25.60
2023-03-17T12:36:58.726Z,25.70
2023-03-17T12:39:32.037Z,25.70
2023-03-17T12:42:17.664Z,25.70
2023-03-17T12:45:15.875Z,25.70
2023-03-17T12:47:54.338Z,25.70
2023-03-17T12:50:32.168Z,25.70
2023-03-17T12:53:08.864Z,25.60
2023-03-17T12:55:37.292Z,25.70
2023-03-17T12:58:26.540Z,25.70
2023-03-17T13:01:02.595Z,25.70
2023-03-17T13:03:32.958Z,25.50
2023-03-17T13:06:08.845Z,25.40
2023-03-17T13:08:40.028Z,25.50
2023-03-17T13:11:19.227Z,25.50
2023-03-17T13:13:48.142Z,25.50
2023-03-17T13:16:34.394Z,25.40
2023-03-17T13:19:22.642Z,25.40
2023-03-17T13:21:52.882Z,25.30
2023-03-17T13:24:23.055Z,25.10
2023-03-17T13:26:55.318Z,25.00
2023-03-17T13:29:45.895Z,25.00
2023-03-17T13:32:15.690Z,24.90
2023-03-17T13:35:02.340Z,25.00
2023-03-17T13:37:35.176Z,25.00
2023-03-17T13:40:14.090Z,25.00
2023-03-17T13:43:09.939Z,25.00
2023-03-17T13:45:41.649Z,25.00
2023-03-17T13:48:40.306Z,24.90
2023-03-17T13:51:15.108Z,24.80
2023-03-17T13:53:47.895Z,24.80
2023-03-17T13:56:23.595Z,24.70
2023-03-17T13:59:05.316Z,24.70
2023-03-17T14:02:01.473Z,24.70
2023-03-17T14:04:58.346Z,24.70
2023-03-17T14:07:30.573Z,24.70
2023-03-17T14:10:01.928Z,24.70
2023-03-17T14:12:42.969Z,24.70
2023-03-17T14:15:33.068Z,24.80
2023-03-17T14:18:13.268Z,24.80
2023-03-17T14:20:51.845Z,24.70
2023-03-17T14:23:18.701Z,24.70
2023-03-17T14:25:45.989Z,24.80
2023-03-17T14:28:17.045Z,24.90
2023-03-17T14:30:56.192Z,25.10
2023-03-17T14:33:29.687Z,25.20
2023-03-17T14:35:59.756Z,25.30
2023-03-17T14:38:30.372Z,25.30
2023-03-17T14:41:06.945Z,25.50
2023-03-17T14:43:35.999Z,25.70
2023-03-17T14:46:05.276Z,25.90
2023-03-17T14:48:35.423Z,26.20
2023-03-17T14:51:23.562Z,26.40
2023-03-17T14:53:53.139Z,26.60
2023-03-17T14:56:31.422Z,26.80
2023-03-17T14:59:07.277Z,27.00
2023-03-17T15:01:43.011Z,27.20
2023-03-17T15:04:17.946Z,27.30
2023-03-17T15:06:53.669Z,27.40
2023-03-17T15:09:39.569Z,27.60
2023-03-17T15:12:21.959Z,27.60
2023-03-17T15:14:53.050Z,27.60
2023-03-17T15:17:32.094Z,27.70
2023-03-17T15:20:04.877Z,27.70
2023-03-17T15:22:34.571Z,27.80
2023-03-17T15:25:07.303Z,27.80
2023-03-17T15:27:34.209Z,27.80
2023-03-17T15:30:03.449Z,27.80
2023-03-17T15:32:31.241Z,27.90
2023-03-17T15:34:58.164Z,27.80
2023-03-17T15:37:27.402Z,27.80
2023-03-17T15:39:56.129Z,27.70
2023-03-17T15:42:32.764Z,27.60
2023-03-17T15:45:03.849Z,27.40
2023-03-17T15:47:36.976Z,27.40
2023-03-17T15:50:16.414Z,27.30
2023-03-17T15:52:43.997Z,27.20
2023-03-17T15:55:21.706Z,27.00
2023-03-17T15:57:54.690Z,26.90
2023-03-17T16:00:25.596Z,26.80
2023-03-17T16:02:57.508Z,26.60
2023-03-17T16:05:25.904Z,26.60
2023-03-17T16:07:53.511Z,26.40
2023-03-17T16:10:26.355Z,26.20
2023-03-17T16:12:53.549Z,26.00
2023-03-17T16:15:24.499Z,25.90
2023-03-17T16:17:55.089Z,25.70
2023-03-17T16:20:26.159Z,25.70
2023-03-17T16:22:55.741Z,25.60
2023-03-17T16:25:28.298Z,25.50
2023-03-17T16:27:57.849Z,25.50
2023-03-17T16:30:27.807Z,25.40
2023-03-17T16:32:57.806Z,25.30
2023-03-17T16:35:25.979Z,25.30
2023-03-17T16:37:56.348Z,25.20
2023-03-17T16:40:28.859Z,25.10
2023-03-17T16:42:55.817Z,25.10
2023-03-17T16:45:30.128Z,24.90
2023-03-17T16:47:57.533Z,24.80
2023-03-17T16:50:28.109Z,24.80
2023-03-17T16:52:56.844Z,24.70
2023-03-17T16:55:25.432Z,24.50
2023-03-17T16:57:55.299Z,24.40
2023-03-17T17:00:25.166Z,24.30
2023-03-17T17:02:52.695Z,24.20
2023-03-17T17:05:25.403Z,24.00
2023-03-17T17:07:56.061Z,24.00
2023-03-17T17:10:25.256Z,23.80
2023-03-17T17:12:52.583Z,23.70
2023-03-17T17:15:21.310Z,23.60
2023-03-17T17:18:01.933Z,23.50
2023-03-17T17:20:33.731Z,23.40
2023-03-17T17:23:02.115Z,23.30
2023-03-17T17:25:29.976Z,23.20
2023-03-17T17:27:58.682Z,23.10
2023-03-17T17:30:33.796Z,23.00
2023-03-17T17:33:01.595Z,22.90
2023-03-17T17:35:32.693Z,22.80
2023-03-17T17:38:02.281Z,22.70
2023-03-17T17:40:30.583Z,22.70
2023-03-17T17:42:58.168Z,22.60
2023-03-17T17:45:26.400Z,22.50
2023-03-17T17:47:53.342Z,22.40
2023-03-17T17:50:25.698Z,22.30
2023-03-17T17:52:53.267Z,22.20
2023-03-17T17:55:20.816Z,22.20
2023-03-17T17:57:47.983Z,22.10
2023-03-17T18:00:17.469Z,22.00
2023-03-17T18:02:44.889Z,22.00
2023-03-17T18:05:12.775Z,21.90
2023-03-17T18:07:40.630Z,21.80
2023-03-17T18:10:08.371Z,21.80
2023-03-17T18:12:35.153Z,21.70
2023-03-17T18:15:01.975Z,21.60
2023-03-17T18:17:31.947Z,21.60
2023-03-17T18:19:59.391Z,21.50
2023-03-17T18:22:26.234Z,21.50
2023-03-17T18:24:53.272Z,21.40
2023-03-17T18:27:20.207Z,21.30
2023-03-17T18:29:48.590Z,21.30
2023-03-17T18:32:15.951Z,21.20
2023-03-17T18:34:45.986Z,21.10
2023-03-17T18:37:15.497Z,21.00
2023-03-17T18:39:42.802Z,20.90
2023-03-17T18:42:09.807Z,20.90
2023-03-17T18:44:37.267Z,20.90
2023-03-17T18:47:04.289Z,20.90
2023-03-17T18:49:31.192Z,20.90
2023-03-17T18:51:59.466Z,20.80
2023-03-17T18:54:30.037Z,20.80
2023-03-17T18:56:57.037Z,20.90
2023-03-17T18:59:24.341Z,20.90
2023-03-17T19:01:51.264Z,20.90
2023-03-17T19:04:18.076Z,20.90
2023-03-17T19:06:45.028Z,20.90
2023-03-17T19:09:12.874Z,20.90
2023-03-17T19:11:39.832Z,20.90
2023-03-17T19:14:07.579Z,20.90
2023-03-17T19:16:35.264Z,20.80
2023-03-17T19:19:02.687Z,20.90
2023-03-17T19:21:29.620Z,20.90
2023-03-17T19:24:00.059Z,20.90
2023-03-17T19:26:27.769Z,20.90
2023-03-17T19:28:56.230Z,20.90
2023-03-17T19:31:25.161Z,20.90
2023-03-17T19:33:52.335Z,20.90
2023-03-17T19:36:19.222Z,20.90
2023-03-17T19:38:46.540Z,20.90
2023-03-17T19:41:15.454Z,20.90
2023-03-17T19:43:42.638Z,20.90
2023-03-17T19:46:11.454Z,20.90
2023-03-17T19:48:42.050Z,20.90
2023-03-17T19:51:09.410Z,20.90
2023-03-17T19:53:37.609Z,20.90
2023-03-17T19:56:04.917Z,20.90
2023-03-17T19:58:31.915Z,20.90
2023-03-17T20:00:58.624Z,20.90
2023-03-17T20:03:26.990Z,20.90
2023-03-17T20:05:54.394Z,20.90
2023-03-17T20:08:22.498Z,20.90
2023-03-17T20:10:53.916Z,20.90
2023-03-17T20:13:22.023Z,20.90
2023-03-17T20:15:50.182Z,20.90
2023-03-17T20:18:18.643Z,20.90
2023-03-17T20:20:49.528Z,20.90
2023-03-17T20:23:17.493Z,20.90
2023-03-17T20:25:44.790Z,20.90
2023-03-17T20:28:12.871Z,20.90
2023-03-17T20:30:40.021Z,20.90
2023-03-17T20:33:08.425Z,20.90
2023-03-17T20:35:35.693Z,21.00
2023-03-17T20:38:03.208Z,21.00
2023-03-17T20:40:30.353Z,20.90
2023-03-17T20:42:57.215Z,20.90
2023-03-17T20:45:24.434Z,20.90
2023-03-17T20:47:51.252Z,20.90
2023-03-17T20:50:18.448Z,20.90
2023-03-17T20:52:45.399Z,20.90
2023-03-17T20:55:14.033Z,20.90
2023-03-17T20:57:45.751Z,21.00
2023-03-17T21:00:16.457Z,21.00
2023-03-17T21:02:44.485Z,20.90
2023-03-17T21:05:15.860Z,20.90
2023-03-17T21:07:43.572Z,20.90
2023-03-17T21:10:10.867Z,20.90
2023-03-17T21:12:38.724Z,20.90
2023-03-17T21:15:07.993Z,20.90
2023-03-17T21:17:34.988Z,20.80
2023-03-17T21:20:02.570Z,20.80
2023-03-17T21:22:31.173Z,20.80
2023-03-17T21:24:58.573Z,20.90
2023-03-17T21:27:25.754Z,20.90
2023-03-17T21:29:53.006Z,20.90
2023-03-17T21:32:19.813Z,20.80
2023-03-17T21:34:47.476Z,20.90
2023-03-17T21:37:16.212Z,20.80
2023-03-17T21:39:43.571Z,20.80
2023-03-17T21:42:12.333Z,20.80
2023-03-17T21:44:41.005Z,20.80
2023-03-17T21:47:08.401Z,20.80
2023-03-17T21:49:35.515Z,20.80
2023-03-17T21:52:02.441Z,20.80
2023-03-17T21:54:30.392Z,20.70
2023-03-17T21:56:57.407Z,20.70
2023-03-17T21:59:24.971Z,20.70
2023-03-17T22:01:53.213Z,20.80
2023-03-17T22:04:20.719Z,20.80
2023-03-17T22:06:47.659Z,20.70
2023-03-17T22:09:16.461Z,20.70
2023-03-17T22:11:44.366Z,20.60
2023-03-17T22:14:13.371Z,20.60
2023-03-17T22:16:40.556Z,20.60
2023-03-17T22:19:09.973Z,20.60
2023-03-17T22:21:37.101Z,20.60
2023-03-17T22:24:04.414Z,20.60
2023-03-17T22:26:31.858Z,20.50
2023-03-17T22:28:59.686Z,20.50
2023-03-17T22:31:28.903Z,20.50
2023-03-17T22:33:57.877Z,20.40
2023-03-17T22:36:26.049Z,20.40
2023-03-17T22:38:53.975Z,20.40
2023-03-17T22:41:24.184Z,20.30
2023-03-17T22:43:51.912Z,20.40
2023-03-17T22:46:19.577Z,20.30
2023-03-17T22:48:47.033Z,20.30
2023-03-17T22:51:18.677Z,20.20
2023-03-17T22:53:45.991Z,20.20
2023-03-17T22:56:14.110Z,20.20
2023-03-17T22:58:41.411Z,20.20
2023-03-17T23:01:09.895Z,20.20
2023-03-17T23:03:37.182Z,20.10
2023-03-17T23:06:06.141Z,20.00
2023-03-17T23:08:35.447Z,20.00
2023-03-17T23:11:08.785Z,20.00
2023-03-17T23:13:35.634Z,20.00
2023-03-17T23:16:04.792Z,19.90
2023-03-17T23:18:35.124Z,19.90
2023-03-17T23:21:03.481Z,19.90
2023-03-17T23:23:31.340Z,19.80
2023-03-17T23:25:58.387Z,19.80
2023-03-17T23:28:26.631Z,19.70
2023-03-17T23:30:54.227Z,19.70
2023-03-17T23:33:22.865Z,19.70
2023-03-17T23:35:51.466Z,19.60
2023-03-17T23:38:21.607Z,19.60
2023-03-17T23:40:49.473Z,19.60
2023-03-17T23:43:16.578Z,19.60
2023-03-17T23:45:44.323Z,19.50
2023-03-17T23:48:12.153Z,19.50
2023-03-17T23:50:41.665Z,19.50
2023-03-17T23:53:12.337Z,19.40
2023-03-17T23:55:40.257Z,19.40
2023-03-17T23:58:07.779Z,19.40
